Time;durP1;ratioP1;P1;durP2;ratioP2;P2;SDS_P1;SDS_P2;PMS_P1;PMS_P2;Temp;Humidity;BMP_temperature;BMP_pressure;BME280_temperature;BME280_humidity;BME280_pressure;Samples;Min_cycle;Max_cycle;Signal;HPM_P1;HPM_P2
2023/07/24 00:01:58;;;;;;;3.70;3.35;;;;;;;;;;7303709;19;140478;-76
2023/07/24 00:04:26;;;;;;;4.07;3.28;;;;;;;;;;7303165;19;140678;-77
2023/07/24 00:06:55;;;;;;;3.45;3.15;;;;;;;;;;7304241;19;140442;-77
2023/07/24 00:09:22;;;;;;;3.50;3.20;;;;;;;;;;7303166;19;142763;-76
2023/07/24 00:11:50;;;;;;;3.70;3.40;;;;;;;;;;7302764;19;140779;-77
2023/07/24 00:14:17;;;;;;;3.65;3.35;;;;;;;;;;7303241;19;140456;-76
2023/07/24 00:16:45;;;;;;;4.22;3.30;;;;;;;;;;7302391;19;141041;-78
2023/07/24 00:19:13;;;;;;;4.35;3.38;;;;;;;;;;7303489;19;143068;-76
2023/07/24 00:21:40;;;;;;;3.60;3.30;;;;;;;;;;7301043;19;140846;-78
2023/07/24 00:24:07;;;;;;;3.42;3.13;;;;;;;;;;7303154;19;140526;-78
2023/07/24 00:26:34;;;;;;;4.15;3.33;;;;;;;;;;7303249;19;140444;-78
2023/07/24 00:29:01;;;;;;;3.63;3.22;;;;;;;;;;7308031;19;141127;-78
2023/07/24 00:31:28;;;;;;;3.88;3.40;;;;;;;;;;7310153;19;140397;-78
2023/07/24 00:33:55;;;;;;;3.70;3.25;;;;;;;;;;7308303;19;140682;-76
2023/07/24 00:36:22;;;;;;;3.72;3.40;;;;;;;;;;7309608;19;141012;-77
2023/07/24 00:38:49;;;;;;;4.32;3.30;;;;;;;;;;7308413;19;140874;-77
2023/07/24 00:41:16;;;;;;;3.58;3.28;;;;;;;;;;7306824;19;140590;-77
2023/07/24 00:43:43;;;;;;;4.00;3.20;;;;;;;;;;7308045;19;140482;-76
2023/07/24 00:46:11;;;;;;;3.50;3.20;;;;;;;;;;7308722;19;141330;-76
2023/07/24 00:48:39;;;;;;;2.65;2.45;;;;;;;;;;7307846;19;142248;-77
2023/07/24 00:51:06;;;;;;;3.58;3.05;;;;;;;;;;7307509;19;140424;-78
2023/07/24 00:53:33;;;;;;;3.03;2.72;;;;;;;;;;7311248;19;140571;-76
2023/07/24 00:56:01;;;;;;;3.00;2.70;;;;;;;;;;7310421;19;140822;-75
2023/07/24 00:58:29;;;;;;;3.65;2.90;;;;;;;;;;7310117;19;141215;-76
2023/07/24 01:00:57;;;;;;;4.05;3.17;;;;;;;;;;7310116;19;140534;-77
2023/07/24 01:03:35;;;;;;;3.30;2.95;;;;;;;;;;7306967;19;140597;-76
2023/07/24 01:06:02;;;;;;;4.60;3.13;;;;;;;;;;7308637;19;141357;-77
2023/07/24 01:08:29;;;;;;;3.30;2.92;;;;;;;;;;7308407;19;140700;-76
2023/07/24 01:10:59;;;;;;;3.70;3.28;;;;;;;;;;7309520;19;140345;-77
2023/07/24 01:13:28;;;;;;;3.33;3.03;;;;;;;;;;7309459;19;140585;-75
2023/07/24 01:15:58;;;;;;;3.17;2.88;;;;;;;;;;7309109;19;141005;-76
2023/07/24 01:18:30;;;;;;;3.80;2.93;;;;;;;;;;7306237;19;141066;-77
2023/07/24 01:20:58;;;;;;;3.20;2.90;;;;;;;;;;7308926;19;140600;-77
2023/07/24 01:23:31;;;;;;;3.78;3.05;;;;;;;;;;7309551;19;140637;-78
2023/07/24 01:26:04;;;;;;;3.38;3.08;;;;;;;;;;7306588;19;142086;-76
2023/07/24 01:28:31;;;;;;;3.67;3.03;;;;;;;;;;7308120;19;142192;-76
2023/07/24 01:30:58;;;;;;;3.20;2.90;;;;;;;;;;7307609;19;140861;-78
2023/07/24 01:33:26;;;;;;;3.38;3.08;;;;;;;;;;7308553;19;140866;-82
2023/07/24 01:35:55;;;;;;;4.05;2.97;;;;;;;;;;7306356;19;142381;-78
2023/07/24 01:38:24;;;;;;;3.28;2.95;;;;;;;;;;7306704;19;140479;-78
2023/07/24 01:40:53;;;;;;;3.28;2.80;;;;;;;;;;7307424;19;140741;-77
2023/07/24 01:43:21;;;;;;;2.70;2.50;;;;;;;;;;7308092;19;140378;-77
2023/07/24 01:45:48;;;;;;;3.22;2.80;;;;;;;;;;7307940;19;141196;-77
2023/07/24 01:48:15;;;;;;;3.10;2.80;;;;;;;;;;7306323;19;141932;-76
2023/07/24 01:50:43;;;;;;;3.85;2.78;;;;;;;;;;7306109;19;140687;-75
2023/07/24 01:53:10;;;;;;;3.10;2.60;;;;;;;;;;7305668;19;140518;-76
2023/07/24 01:55:37;;;;;;;3.13;2.80;;;;;;;;;;7306910;19;141189;-76
2023/07/24 01:58:04;;;;;;;2.92;2.72;;;;;;;;;;7305501;19;140967;-75
2023/07/24 02:00:31;;;;;;;2.80;2.60;;;;;;;;;;7304924;19;140439;-75
2023/07/24 02:02:58;;;;;;;3.60;2.72;;;;;;;;;;7307440;19;140737;-75
2023/07/24 02:05:26;;;;;;;3.25;2.75;;;;;;;;;;7305182;19;140850;-75
2023/07/24 02:07:53;;;;;;;3.15;2.85;;;;;;;;;;7305862;19;142004;-77
2023/07/24 02:10:21;;;;;;;2.83;2.53;;;;;;;;;;7305489;19;140660;-77
2023/07/24 02:12:49;;;;;;;2.92;2.53;;;;;;;;;;7306933;19;140625;-77
2023/07/24 02:15:16;;;;;;;2.80;2.60;;;;;;;;;;7307063;19;141137;-78
2023/07/24 02:17:44;;;;;;;2.70;2.50;;;;;;;;;;7305702;19;141564;-76
2023/07/24 02:20:11;;;;;;;3.45;2.72;;;;;;;;;;7304509;19;140688;-77
2023/07/24 02:22:38;;;;;;;3.63;2.75;;;;;;;;;;7306271;19;140541;-77
2023/07/24 02:25:06;;;;;;;2.75;2.40;;;;;;;;;;7306072;19;142775;-76
2023/07/24 02:27:34;;;;;;;3.42;2.80;;;;;;;;;;7305733;19;141753;-77
2023/07/24 02:30:01;;;;;;;2.78;2.42;;;;;;;;;;7306881;19;140642;-76
2023/07/24 02:32:29;;;;;;;2.78;2.50;;;;;;;;;;7305993;19;140525;-76
2023/07/24 02:34:56;;;;;;;3.35;2.65;;;;;;;;;;7305074;19;141234;-76
2023/07/24 02:37:23;;;;;;;2.72;2.30;;;;;;;;;;7305916;19;141297;-79
2023/07/24 02:39:51;;;;;;;2.88;2.67;;;;;;;;;;7304485;19;141049;-76
2023/07/24 02:42:18;;;;;;;2.97;2.30;;;;;;;;;;7304986;19;140776;-76
2023/07/24 02:44:45;;;;;;;2.40;2.17;;;;;;;;;;7303891;19;141104;-76
2023/07/24 02:47:12;;;;;;;2.75;2.55;;;;;;;;;;7305573;19;140818;-76
2023/07/24 02:49:39;;;;;;;2.90;2.60;;;;;;;;;;7305028;19;140961;-76
2023/07/24 02:52:06;;;;;;;2.40;2.20;;;;;;;;;;7302958;19;140635;-76
2023/07/24 02:54:33;;;;;;;2.38;2.17;;;;;;;;;;7304727;19;141026;-76
2023/07/24 02:57:02;;;;;;;2.70;2.50;;;;;;;;;;7303609;19;142063;-76
2023/07/24 02:59:29;;;;;;;3.08;2.22;;;;;;;;;;7303350;19;140596;-76
2023/07/24 03:01:56;;;;;;;3.10;2.55;;;;;;;;;;7303741;19;140738;-77
2023/07/24 03:04:24;;;;;;;2.47;2.28;;;;;;;;;;7303924;19;140904;-76
2023/07/24 03:06:51;;;;;;;2.55;2.33;;;;;;;;;;7304365;19;140798;-76
2023/07/24 03:09:18;;;;;;;2.85;2.38;;;;;;;;;;7306083;19;140424;-77
2023/07/24 03:11:45;;;;;;;2.60;2.40;;;;;;;;;;7305476;19;140869;-77
2023/07/24 03:14:12;;;;;;;2.60;2.25;;;;;;;;;;7304775;19;141701;-76
2023/07/24 03:16:39;;;;;;;2.88;2.58;;;;;;;;;;7304309;19;142577;-76
2023/07/24 03:19:06;;;;;;;2.58;2.38;;;;;;;;;;7302691;19;140432;-75
2023/07/24 03:21:35;;;;;;;2.50;2.20;;;;;;;;;;7305300;19;140625;-76
2023/07/24 03:24:03;;;;;;;2.47;2.28;;;;;;;;;;7304697;19;140626;-76
2023/07/24 03:26:30;;;;;;;2.40;2.20;;;;;;;;;;7304971;19;141508;-76
2023/07/24 03:28:58;;;;;;;2.80;2.50;;;;;;;;;;7305234;19;140629;-75
2023/07/24 03:31:25;;;;;;;2.22;2.03;;;;;;;;;;7304140;19;140668;-75
2023/07/24 03:33:52;;;;;;;2.60;2.33;;;;;;;;;;7303514;19;141077;-76
2023/07/24 03:36:19;;;;;;;2.42;2.22;;;;;;;;;;7304309;19;142644;-76
2023/07/24 03:38:50;;;;;;;2.20;2.00;;;;;;;;;;7304191;19;140391;-76
2023/07/24 03:41:17;;;;;;;2.50;2.30;;;;;;;;;;7303749;19;140631;-79
2023/07/24 03:43:44;;;;;;;2.70;2.25;;;;;;;;;;7302253;19;140577;-76
2023/07/24 03:46:11;;;;;;;3.83;2.40;;;;;;;;;;7302980;19;142091;-76
2023/07/24 03:48:38;;;;;;;2.42;2.20;;;;;;;;;;7303654;19;140450;-76
2023/07/24 03:51:05;;;;;;;2.40;2.20;;;;;;;;;;7303442;19;140494;-76
2023/07/24 03:53:32;;;;;;;2.65;2.40;;;;;;;;;;7303551;19;141828;-76
2023/07/24 03:55:59;;;;;;;2.25;2.05;;;;;;;;;;7301568;19;141567;-77
2023/07/24 03:58:26;;;;;;;2.20;2.00;;;;;;;;;;7303511;19;140833;-77
2023/07/24 04:00:53;;;;;;;2.70;2.30;;;;;;;;;;7303663;19;140514;-77
2023/07/24 04:03:20;;;;;;;1.88;1.77;;;;;;;;;;7306273;19;140473;-78
2023/07/24 04:05:47;;;;;;;2.65;2.22;;;;;;;;;;7308052;19;142136;-78
2023/07/24 04:08:14;;;;;;;2.17;1.98;;;;;;;;;;7310541;19;140565;-78
2023/07/24 04:10:41;;;;;;;2.53;2.20;;;;;;;;;;7310146;19;140659;-77
2023/07/24 04:13:08;;;;;;;2.20;2.00;;;;;;;;;;7310105;19;140856;-76
2023/07/24 04:15:36;;;;;;;2.30;2.10;;;;;;;;;;7309703;19;142472;-76
2023/07/24 04:18:03;;;;;;;2.10;1.90;;;;;;;;;;7310220;19;140443;-76
2023/07/24 04:20:30;;;;;;;2.53;2.33;;;;;;;;;;7308700;19;140880;-75
2023/07/24 04:22:57;;;;;;;2.40;2.20;;;;;;;;;;7310018;19;141641;-76
2023/07/24 04:25:24;;;;;;;2.28;2.03;;;;;;;;;;7310549;19;140943;-76
2023/07/24 04:27:51;;;;;;;2.22;2.03;;;;;;;;;;7309102;19;140790;-75
2023/07/24 04:30:18;;;;;;;2.20;2.00;;;;;;;;;;7309766;19;140655;-76
2023/07/24 04:32:46;;;;;;;2.53;2.13;;;;;;;;;;7309855;19;140996;-75
2023/07/24 04:35:13;;;;;;;2.53;2.10;;;;;;;;;;7309523;19;141393;-76
2023/07/24 04:37:40;;;;;;;2.40;2.20;;;;;;;;;;7310511;19;140716;-77
2023/07/24 04:40:07;;;;;;;2.30;2.10;;;;;;;;;;7310230;19;140423;-77
2023/07/24 04:42:34;;;;;;;2.20;2.00;;;;;;;;;;7309236;19;141261;-77
2023/07/24 04:45:02;;;;;;;1.73;1.63;;;;;;;;;;7309490;19;141004;-77
2023/07/24 04:47:29;;;;;;;2.20;2.00;;;;;;;;;;7309461;19;140551;-77
2023/07/24 04:49:58;;;;;;;3.63;1.90;;;;;;;;;;7309689;19;140957;-77
2023/07/24 04:52:26;;;;;;;2.08;1.88;;;;;;;;;;7308703;19;140478;-77
2023/07/24 04:54:52;;;;;;;2.03;1.85;;;;;;;;;;7308642;19;140855;-78
2023/07/24 04:57:20;;;;;;;2.33;2.13;;;;;;;;;;7309700;19;140369;-78
2023/07/24 04:59:47;;;;;;;1.95;1.80;;;;;;;;;;7308570;19;140632;-78
2023/07/24 05:02:14;;;;;;;1.85;1.75;;;;;;;;;;7309065;19;141385;-77
2023/07/24 05:04:42;;;;;;;2.20;2.00;;;;;;;;;;7308317;19;142063;-77
2023/07/24 05:07:09;;;;;;;2.67;1.90;;;;;;;;;;7309893;19;140499;-78
2023/07/24 05:09:37;;;;;;;1.77;1.67;;;;;;;;;;7309519;19;140688;-78
2023/07/24 05:12:04;;;;;;;1.92;1.77;;;;;;;;;;7308568;19;141118;-78
2023/07/24 05:14:31;;;;;;;1.80;1.63;;;;;;;;;;7305737;19;141882;-80
2023/07/24 05:16:58;;;;;;;2.15;1.95;;;;;;;;;;7307494;19;140782;-76
2023/07/24 05:19:25;;;;;;;2.17;1.98;;;;;;;;;;7307577;19;140358;-76
2023/07/24 05:21:52;;;;;;;2.00;1.88;;;;;;;;;;7308376;19;141977;-77
2023/07/24 05:24:20;;;;;;;2.13;1.92;;;;;;;;;;7306775;19;142664;-77
2023/07/24 05:26:48;;;;;;;1.88;1.65;;;;;;;;;;7309259;19;140716;-77
2023/07/24 05:29:15;;;;;;;2.78;1.95;;;;;;;;;;7308637;19;140677;-79
2023/07/24 05:31:44;;;;;;;2.15;1.90;;;;;;;;;;7308603;19;141791;-80
2023/07/24 05:34:11;;;;;;;1.75;1.65;;;;;;;;;;7309264;19;141881;-79
2023/07/24 05:36:41;;;;;;;2.17;1.98;;;;;;;;;;7307023;19;140551;-80
2023/07/24 05:39:08;;;;;;;2.00;1.80;;;;;;;;;;7307088;19;140489;-81
2023/07/24 05:41:37;;;;;;;2.20;1.98;;;;;;;;;;7306878;19;140623;-79
2023/07/24 05:44:06;;;;;;;1.77;1.67;;;;;;;;;;7308073;19;142630;-79
2023/07/24 05:46:33;;;;;;;1.80;1.70;;;;;;;;;;7308331;19;140792;-79
2023/07/24 05:49:02;;;;;;;1.80;1.70;;;;;;;;;;7308972;19;140809;-79
2023/07/24 05:51:29;;;;;;;1.92;1.83;;;;;;;;;;7307168;19;140417;-79
2023/07/24 05:53:56;;;;;;;1.98;1.70;;;;;;;;;;7308114;19;141513;-77
2023/07/24 05:56:23;;;;;;;2.13;1.95;;;;;;;;;;7307871;19;140547;-78
2023/07/24 05:58:50;;;;;;;1.80;1.70;;;;;;;;;;7307829;19;140531;-78
2023/07/24 06:01:18;;;;;;;1.85;1.75;;;;;;;;;;7307630;19;141611;-79
2023/07/24 06:03:45;;;;;;;2.05;1.88;;;;;;;;;;7305397;19;143333;-78
2023/07/24 06:06:12;;;;;;;1.60;1.50;;;;;;;;;;7305984;19;140483;-78
2023/07/24 06:08:39;;;;;;;1.80;1.70;;;;;;;;;;7307210;19;140479;-76
2023/07/24 06:11:06;;;;;;;1.73;1.63;;;;;;;;;;7307312;19;141708;-76
2023/07/24 06:13:33;;;;;;;2.05;1.77;;;;;;;;;;7306099;19;142167;-78
2023/07/24 06:16:00;;;;;;;1.70;1.60;;;;;;;;;;7306648;19;140841;-78
2023/07/24 06:18:28;;;;;;;1.70;1.60;;;;;;;;;;7306254;19;140673;-78
2023/07/24 06:20:56;;;;;;;1.70;1.60;;;;;;;;;;7306477;19;141117;-78
2023/07/24 06:23:23;;;;;;;1.65;1.55;;;;;;;;;;7306510;19;142029;-79
2023/07/24 06:25:51;;;;;;;1.40;1.30;;;;;;;;;;7304939;19;140434;-78
2023/07/24 06:28:19;;;;;;;1.60;1.50;;;;;;;;;;7306535;19;140798;-77
2023/07/24 06:30:46;;;;;;;1.60;1.50;;;;;;;;;;7306947;19;140488;-79
2023/07/24 06:33:13;;;;;;;1.75;1.63;;;;;;;;;;7305806;19;142436;-77
2023/07/24 06:35:40;;;;;;;1.88;1.60;;;;;;;;;;7306068;19;140506;-77
2023/07/24 06:38:08;;;;;;;1.48;1.38;;;;;;;;;;7305988;19;140655;-76
2023/07/24 06:40:35;;;;;;;1.45;1.35;;;;;;;;;;7305812;19;141316;-76
2023/07/24 06:43:02;;;;;;;1.58;1.48;;;;;;;;;;7307733;19;140667;-77
2023/07/24 06:45:29;;;;;;;1.77;1.65;;;;;;;;;;7306417;19;140677;-79
2023/07/24 06:47:57;;;;;;;1.67;1.58;;;;;;;;;;7304713;19;140430;-72
2023/07/24 06:50:24;;;;;;;1.80;1.70;;;;;;;;;;7304210;19;140526;-72
2023/07/24 06:52:53;;;;;;;1.90;1.70;;;;;;;;;;7305496;19;142654;-73
2023/07/24 06:55:20;;;;;;;1.50;1.40;;;;;;;;;;7304065;19;140782;-72
2023/07/24 06:57:48;;;;;;;1.45;1.35;;;;;;;;;;7305876;19;140698;-72
2023/07/24 07:00:16;;;;;;;1.50;1.40;;;;;;;;;;7303862;19;141273;-73
2023/07/24 07:02:43;;;;;;;1.65;1.55;;;;;;;;;;7304788;19;142226;-73
2023/07/24 07:05:10;;;;;;;1.80;1.48;;;;;;;;;;7303653;19;140411;-72
2023/07/24 07:07:37;;;;;;;1.33;1.23;;;;;;;;;;7301805;19;140735;-73
2023/07/24 07:10:05;;;;;;;1.67;1.55;;;;;;;;;;7303232;19;141312;-79
2023/07/24 07:12:32;;;;;;;1.67;1.58;;;;;;;;;;7304174;19;140848;-89
2023/07/24 07:14:59;;;;;;;1.40;1.27;;;;;;;;;;7305895;19;140491;-81
2023/07/24 07:17:26;;;;;;;1.50;1.40;;;;;;;;;;7305444;19;140802;-79
2023/07/24 07:19:56;;;;;;;1.30;1.20;;;;;;;;;;7303996;19;140971;-80
2023/07/24 07:22:23;;;;;;;1.80;1.50;;;;;;;;;;7302933;19;142439;-80
2023/07/24 07:24:50;;;;;;;1.33;1.23;;;;;;;;;;7305187;19;140645;-80
2023/07/24 07:27:18;;;;;;;1.50;1.40;;;;;;;;;;7304036;19;140432;-88
2023/07/24 07:29:45;;;;;;;1.50;1.40;;;;;;;;;;7310541;19;140531;-81
2023/07/24 07:32:12;;;;;;;1.38;1.27;;;;;;;;;;7304613;19;141904;-81
2023/07/24 07:34:40;;;;;;;1.40;1.30;;;;;;;;;;7304980;19;140696;-80
2023/07/24 07:37:07;;;;;;;1.58;1.48;;;;;;;;;;7305005;19;140706;-80
2023/07/24 07:39:34;;;;;;;1.70;1.60;;;;;;;;;;7315090;19;140845;-78
2023/07/24 07:42:02;;;;;;;1.88;1.40;;;;;;;;;;7315955;19;142081;-79
2023/07/24 07:44:43;;;;;;;1.77;1.50;;;;;;;;;;7315554;19;140560;-79
2023/07/24 07:47:10;;;;;;;1.40;1.30;;;;;;;;;;7311487;19;140605;-76
2023/07/24 07:49:38;;;;;;;1.45;1.35;;;;;;;;;;7311725;19;141188;-79
2023/07/24 07:52:17;;;;;;;1.40;1.30;;;;;;;;;;7312732;19;142628;-80
2023/07/24 07:54:48;;;;;;;1.30;1.20;;;;;;;;;;7314356;19;140283;-79
2023/07/24 07:57:15;;;;;;;1.50;1.40;;;;;;;;;;7313267;19;140716;-80
2023/07/24 07:59:42;;;;;;;1.42;1.33;;;;;;;;;;7311552;19;141744;-81
2023/07/24 08:02:10;;;;;;;1.75;1.45;;;;;;;;;;7311540;19;142521;-80
2023/07/24 08:04:38;;;;;;;1.30;1.20;;;;;;;;;;7310311;19;140779;-80
2023/07/24 08:07:05;;;;;;;1.92;1.45;;;;;;;;;;7309025;19;140575;-79
2023/07/24 08:09:33;;;;;;;1.23;1.13;;;;;;;;;;7309546;19;140526;-78
2023/07/24 08:12:00;;;;;;;1.52;1.42;;;;;;;;;;7311029;19;141946;-78
2023/07/24 08:14:27;;;;;;;1.42;1.33;;;;;;;;;;7311539;19;140591;-79
2023/07/24 08:16:54;;;;;;;1.40;1.27;;;;;;;;;;7311166;19;140660;-83
2023/07/24 08:19:21;;;;;;;1.25;1.15;;;;;;;;;;7308977;19;141038;-83
2023/07/24 08:21:48;;;;;;;1.25;1.17;;;;;;;;;;7309915;19;141493;-83
2023/07/24 08:24:15;;;;;;;1.50;1.40;;;;;;;;;;7311418;19;140803;-82
2023/07/24 08:26:42;;;;;;;1.52;1.15;;;;;;;;;;7310374;19;140752;-81
2023/07/24 08:29:10;;;;;;;1.42;1.30;;;;;;;;;;7308832;19;141436;-81
2023/07/24 08:31:38;;;;;;;1.20;1.10;;;;;;;;;;7309592;19;140920;-77
2023/07/24 08:34:05;;;;;;;1.23;1.13;;;;;;;;;;7312516;19;141198;-77
2023/07/24 08:36:32;;;;;;;5.65;1.48;;;;;;;;;;7312528;19;140571;-78
2023/07/24 08:39:00;;;;;;;2.45;1.70;;;;;;;;;;7309890;19;140758;-78
2023/07/24 08:41:27;;;;;;;3.88;1.42;;;;;;;;;;7309704;19;141015;-78
2023/07/24 08:43:54;;;;;;;1.92;1.45;;;;;;;;;;7310269;19;140596;-78
2023/07/24 08:46:21;;;;;;;1.65;1.50;;;;;;;;;;7309708;19;141134;-77
2023/07/24 08:48:49;;;;;;;3.78;1.60;;;;;;;;;;7307943;19;141973;-77
2023/07/24 08:51:18;;;;;;;2.55;1.40;;;;;;;;;;7307207;19;142360;-76
2023/07/24 08:53:45;;;;;;;2.35;1.73;;;;;;;;;;7307548;19;140518;-78
2023/07/24 08:56:13;;;;;;;1.75;1.40;;;;;;;;;;7308934;19;140683;-78
2023/07/24 08:58:40;;;;;;;4.53;1.52;;;;;;;;;;7309429;19;140505;-77
2023/07/24 09:01:11;;;;;;;1.60;1.30;;;;;;;;;;7308754;19;141916;-79
2023/07/24 09:03:41;;;;;;;;;;;;;;;;;;7310012;19;140863;-81
2023/07/24 09:06:08;;;;;;;1.65;1.30;;;;;;;;;;7312624;19;140723;-82
2023/07/24 09:08:38;;;;;;;2.40;1.30;;;;;;;;;;7314870;19;140507;-82
2023/07/24 09:11:06;;;;;;;1.40;1.30;;;;;;;;;;7310101;19;140770;-84
2023/07/24 09:13:37;;;;;;;3.30;1.65;;;;;;;;;;7311305;19;140669;-78
2023/07/24 09:16:05;;;;;;;2.25;1.67;;;;;;;;;;7309899;19;140703;-78
2023/07/24 09:18:42;;;;;;;4.18;1.50;;;;;;;;;;7309596;19;141261;-78
2023/07/24 09:21:12;;;;;;;2.40;1.27;;;;;;;;;;7312144;19;142501;-78
2023/07/24 09:23:43;;;;;;;4.72;1.60;;;;;;;;;;7309905;19;140667;-80
2023/07/24 09:26:10;;;;;;;1.77;1.20;;;;;;;;;;7308471;19;140502;-90
2023/07/24 09:28:37;;;;;;;5.50;1.58;;;;;;;;;;7309278;19;140650;-84
2023/07/24 09:31:04;;;;;;;1.88;1.30;;;;;;;;;;7311585;19;142622;-83
2023/07/24 09:33:36;;;;;;;2.05;1.60;;;;;;;;;;7310242;19;140811;-85
2023/07/24 09:36:04;;;;;;;2.58;1.63;;;;;;;;;;7309253;19;140557;-84
2023/07/24 09:38:31;;;;;;;2.25;1.30;;;;;;;;;;7310912;19;140656;-84
2023/07/24 09:41:04;;;;;;;2.80;1.80;;;;;;;;;;7311263;19;140405;-84
2023/07/24 09:43:32;;;;;;;2.28;1.50;;;;;;;;;;7311715;19;140527;-84
2023/07/24 09:46:03;;;;;;;3.13;1.48;;;;;;;;;;7310805;19;140771;-82
2023/07/24 09:48:31;;;;;;;2.53;1.52;;;;;;;;;;7309858;19;140941;-83
2023/07/24 09:51:01;;;;;;;2.92;1.52;;;;;;;;;;7307718;19;140885;-83
2023/07/24 09:53:33;;;;;;;2.92;1.30;;;;;;;;;;7306337;19;141034;-84
2023/07/24 09:56:04;;;;;;;3.63;1.27;;;;;;;;;;7308117;19;140530;-85
2023/07/24 09:58:38;;;;;;;3.03;1.50;;;;;;;;;;7308055;19;140590;-85
2023/07/24 10:01:06;;;;;;;3.00;1.52;;;;;;;;;;7304798;19;140822;-83
2023/07/24 10:03:36;;;;;;;2.63;1.60;;;;;;;;;;7307051;19;140670;-83
2023/07/24 10:06:05;;;;;;;3.63;1.50;;;;;;;;;;7305594;19;140680;-84
2023/07/24 10:08:34;;;;;;;4.32;1.60;;;;;;;;;;7306145;19;140634;-83
2023/07/24 10:11:03;;;;;;;2.72;1.45;;;;;;;;;;7304845;19;140755;-85
2023/07/24 10:13:36;;;;;;;2.30;1.50;;;;;;;;;;7307674;19;140782;-82
2023/07/24 10:16:06;;;;;;;1.85;1.20;;;;;;;;;;7307981;19;140714;-82
2023/07/24 10:18:35;;;;;;;2.75;1.40;;;;;;;;;;7306445;19;140894;-85
2023/07/24 10:21:05;;;;;;;3.22;1.40;;;;;;;;;;7306697;19;141778;-85
2023/07/24 10:23:32;;;;;;;;;;;;;;;;;;7307020;19;140664;-85
2023/07/24 10:26:03;;;;;;;4.10;1.50;;;;;;;;;;7307782;19;140651;-82
2023/07/24 10:28:49;;;;;;;5.07;1.60;;;;;;;;;;7306488;19;141118;-83
2023/07/24 10:31:19;;;;;;;2.95;1.58;;;;;;;;;;7308744;19;142623;-84
2023/07/24 10:33:46;;;;;;;2.53;1.27;;;;;;;;;;7307749;19;141091;-84
2023/07/24 10:36:18;;;;;;;3.35;1.60;;;;;;;;;;7306507;19;140501;-84
2023/07/24 10:38:46;;;;;;;3.85;1.60;;;;;;;;;;7306979;19;141103;-81
2023/07/24 10:41:14;;;;;;;5.22;1.80;;;;;;;;;;7311066;19;140493;-82
2023/07/24 10:43:42;;;;;;;5.22;1.30;;;;;;;;;;7310229;19;140635;-82
2023/07/24 10:46:14;;;;;;;3.75;1.58;;;;;;;;;;7308660;19;140583;-81
2023/07/24 10:48:45;;;;;;;3.97;1.65;;;;;;;;;;7310751;19;142576;-82
2023/07/24 10:51:14;;;;;;;3.45;1.50;;;;;;;;;;7306923;19;142729;-82
2023/07/24 10:53:44;;;;;;;4.18;1.52;;;;;;;;;;7307516;19;140653;-81
2023/07/24 10:56:12;;;;;;;3.00;1.80;;;;;;;;;;7309580;19;140914;-80
2023/07/24 10:58:40;;;;;;;4.68;1.45;;;;;;;;;;7309254;19;141663;-81
2023/07/24 11:01:08;;;;;;;4.95;1.95;;;;;;;;;;7306016;19;142009;-82
2023/07/24 11:03:36;;;;;;;4.13;1.55;;;;;;;;;;7306587;19;140958;-83
2023/07/24 11:06:03;;;;;;;4.50;1.55;;;;;;;;;;7306290;19;140666;-83
2023/07/24 11:08:33;;;;;;;3.28;1.45;;;;;;;;;;7304337;19;140562;-83
2023/07/24 11:11:01;;;;;;;3.72;1.95;;;;;;;;;;7305485;19;140443;-83
2023/07/24 11:13:28;;;;;;;6.03;1.80;;;;;;;;;;7303668;19;140735;-82
2023/07/24 11:15:55;;;;;;;3.85;1.60;;;;;;;;;;7306610;19;140766;-81
2023/07/24 11:18:26;;;;;;;3.80;1.45;;;;;;;;;;7307080;19;141363;-85
2023/07/24 11:21:03;;;;;;;3.05;1.77;;;;;;;;;;7304785;19;141965;-81
2023/07/24 11:23:30;;;;;;;3.30;1.63;;;;;;;;;;7303747;19;140307;-82
2023/07/24 11:25:57;;;;;;;3.75;1.73;;;;;;;;;;7304084;19;140742;-80
2023/07/24 11:28:24;;;;;;;5.07;1.55;;;;;;;;;;7305014;19;140840;-77
2023/07/24 11:30:51;;;;;;;4.25;1.63;;;;;;;;;;7304876;19;142278;-80
2023/07/24 11:33:19;;;;;;;4.82;1.60;;;;;;;;;;7305791;19;141904;-75
2023/07/24 11:35:47;;;;;;;4.03;1.85;;;;;;;;;;7303751;19;142648;-79
2023/07/24 11:38:16;;;;;;;3.50;1.60;;;;;;;;;;7303544;19;140659;-78
2023/07/24 11:40:44;;;;;;;3.83;1.50;;;;;;;;;;7304130;19;142581;-77
2023/07/24 11:43:18;;;;;;;2.72;1.40;;;;;;;;;;7302611;19;140911;-78
2023/07/24 11:45:48;;;;;;;4.20;1.52;;;;;;;;;;7300248;19;140851;-75
2023/07/24 11:48:16;;;;;;;4.72;1.58;;;;;;;;;;7301618;19;140443;-77
2023/07/24 11:50:47;;;;;;;2.30;1.63;;;;;;;;;;7304461;19;142087;-76
2023/07/24 11:53:24;;;;;;;3.83;1.77;;;;;;;;;;7304428;19;140436;-77
2023/07/24 11:55:52;;;;;;;2.22;1.30;;;;;;;;;;7304668;19;141559;-78
2023/07/24 11:58:20;;;;;;;4.25;1.60;;;;;;;;;;7304310;19;141132;-77
2023/07/24 12:00:51;;;;;;;3.40;1.70;;;;;;;;;;7303814;19;141003;-77
2023/07/24 12:03:25;;;;;;;2.47;1.60;;;;;;;;;;7304380;19;140701;-76
2023/07/24 12:05:53;;;;;;;8.90;1.92;;;;;;;;;;7305410;19;140829;-78
2023/07/24 12:08:29;;;;;;;7.10;1.90;;;;;;;;;;7303826;19;140578;-77
2023/07/24 12:10:56;;;;;;;5.13;2.00;;;;;;;;;;7305911;19;140958;-76
2023/07/24 12:13:26;;;;;;;3.40;1.50;;;;;;;;;;7306910;19;140223;-76
2023/07/24 12:15:53;;;;;;;3.33;1.55;;;;;;;;;;7309472;19;140293;-76
2023/07/24 12:18:23;;;;;;;3.90;1.27;;;;;;;;;;7304062;19;140480;-76
2023/07/24 12:20:51;;;;;;;2.72;1.48;;;;;;;;;;7306215;19;141390;-78
2023/07/24 12:23:19;;;;;;;3.10;1.60;;;;;;;;;;7304951;19;140537;-77
2023/07/24 12:25:49;;;;;;;2.45;1.63;;;;;;;;;;7312784;19;140645;-79
2023/07/24 12:28:16;;;;;;;3.78;1.55;;;;;;;;;;7309953;19;141578;-79
2023/07/24 12:30:45;;;;;;;1.45;1.08;;;;;;;;;;7314315;19;140828;-80
2023/07/24 12:33:13;;;;;;;2.42;1.27;;;;;;;;;;7316798;19;140138;-81
2023/07/24 12:35:41;;;;;;;3.83;1.50;;;;;;;;;;7314040;19;141155;-80
2023/07/24 12:38:08;;;;;;;3.53;1.50;;;;;;;;;;7312240;19;140826;-82
2023/07/24 12:40:35;;;;;;;2.05;1.38;;;;;;;;;;7310326;19;140725;-81
2023/07/24 12:43:04;;;;;;;2.88;1.67;;;;;;;;;;7311924;19;140552;-79
2023/07/24 12:45:31;;;;;;;3.55;1.30;;;;;;;;;;7309550;19;140432;-79
2023/07/24 12:47:59;;;;;;;4.07;1.63;;;;;;;;;;7314286;19;141271;-81
2023/07/24 12:50:27;;;;;;;3.03;1.58;;;;;;;;;;7312220;19;142880;-80
2023/07/24 12:52:54;;;;;;;1.95;1.30;;;;;;;;;;7311183;19;140368;-80
2023/07/24 12:55:22;;;;;;;1.92;1.20;;;;;;;;;;7310924;19;140575;-79
2023/07/24 12:57:49;;;;;;;3.05;1.30;;;;;;;;;;7315525;19;141507;-78
2023/07/24 13:00:17;;;;;;;2.53;1.48;;;;;;;;;;7312724;19;140664;-78
2023/07/24 13:02:45;;;;;;;1.73;1.38;;;;;;;;;;7317603;19;140571;-78
2023/07/24 13:05:12;;;;;;;1.85;1.25;;;;;;;;;;7311542;19;140376;-78
2023/07/24 13:07:39;;;;;;;3.63;1.60;;;;;;;;;;7310006;19;141274;-79
2023/07/24 13:10:07;;;;;;;3.05;1.27;;;;;;;;;;7309082;19;142529;-77
2023/07/24 13:12:35;;;;;;;6.78;2.38;;;;;;;;;;7312867;19;140493;-75
2023/07/24 13:15:05;;;;;;;5.00;1.95;;;;;;;;;;7311887;19;140559;-75
2023/07/24 13:17:33;;;;;;;5.88;2.15;;;;;;;;;;7311390;19;140487;-74
2023/07/24 13:20:00;;;;;;;5.72;2.30;;;;;;;;;;7317717;19;142128;-75
2023/07/24 13:22:27;;;;;;;3.88;1.90;;;;;;;;;;7308794;19;140717;-77
2023/07/24 13:24:54;;;;;;;6.18;2.05;;;;;;;;;;7309270;19;140663;-77
2023/07/24 13:27:22;;;;;;;5.20;1.88;;;;;;;;;;7309672;19;140875;-78
2023/07/24 13:29:50;;;;;;;4.25;1.80;;;;;;;;;;7310478;19;142104;-76
2023/07/24 13:32:17;;;;;;;4.18;1.90;;;;;;;;;;7309463;19;142183;-75
2023/07/24 13:34:44;;;;;;;5.35;1.67;;;;;;;;;;7308809;19;140592;-76
2023/07/24 13:37:12;;;;;;;4.97;2.15;;;;;;;;;;7309797;19;141188;-76
2023/07/24 13:39:40;;;;;;;3.03;1.77;;;;;;;;;;7312078;19;141776;-77
2023/07/24 13:42:07;;;;;;;4.63;1.80;;;;;;;;;;7308259;19;140633;-75
2023/07/24 13:44:34;;;;;;;2.92;1.77;;;;;;;;;;7309772;19;140554;-75
2023/07/24 13:47:01;;;;;;;3.10;1.90;;;;;;;;;;7309628;19;141626;-75
2023/07/24 13:49:28;;;;;;;3.15;1.92;;;;;;;;;;7309911;19;141659;-77
2023/07/24 13:51:55;;;;;;;2.72;1.73;;;;;;;;;;7315072;19;140186;-79
2023/07/24 13:54:23;;;;;;;3.85;1.95;;;;;;;;;;7307850;19;140472;-77
2023/07/24 13:56:50;;;;;;;3.13;1.85;;;;;;;;;;7311769;19;140375;-75
2023/07/24 13:59:17;;;;;;;4.10;1.63;;;;;;;;;;7309897;19;142283;-77
2023/07/24 14:01:44;;;;;;;3.95;1.90;;;;;;;;;;7309266;19;140429;-79
2023/07/24 14:04:19;;;;;;;2.40;1.58;;;;;;;;;;7308964;19;140629;-76
2023/07/24 14:06:47;;;;;;;3.22;1.75;;;;;;;;;;7309743;19;140999;-74
2023/07/24 14:09:14;;;;;;;4.15;1.98;;;;;;;;;;7307997;19;142008;-74
2023/07/24 14:11:43;;;;;;;2.53;1.42;;;;;;;;;;7309367;19;140791;-75
2023/07/24 14:14:11;;;;;;;3.33;1.70;;;;;;;;;;7311058;19;140554;-76
2023/07/24 14:16:38;;;;;;;4.75;1.90;;;;;;;;;;7308001;19;141832;-75
2023/07/24 14:19:09;;;;;;;4.55;2.00;;;;;;;;;;7305923;19;141449;-74
2023/07/24 14:21:37;;;;;;;4.32;1.92;;;;;;;;;;7305322;19;140395;-72
2023/07/24 14:24:04;;;;;;;7.75;2.78;;;;;;;;;;7303460;19;140442;-75
2023/07/24 14:26:31;;;;;;;7.10;2.38;;;;;;;;;;7305513;19;141291;-75
2023/07/24 14:28:58;;;;;;;5.65;2.58;;;;;;;;;;7304893;19;142042;-74
2023/07/24 14:31:25;;;;;;;6.97;2.90;;;;;;;;;;7304825;19;140982;-75
2023/07/24 14:33:55;;;;;;;8.33;2.70;;;;;;;;;;7305352;19;140890;-73
2023/07/24 14:36:23;;;;;;;7.03;2.63;;;;;;;;;;7305976;19;141315;-75